createdAt,value
2023-06-07T00:00:30.989Z,154.62
2023-06-07T00:01:30.986Z,153.65
2023-06-07T00:02:42.938Z,154.32
2023-06-07T00:03:32.504Z,154.44
2023-06-07T00:04:31.159Z,154.66
2023-06-07T00:05:31.098Z,154.22
2023-06-07T00:06:31.111Z,151.97
2023-06-07T00:07:31.087Z,153.24
2023-06-07T00:08:31.092Z,153.57
2023-06-07T00:09:31.104Z,151.72
2023-06-07T00:10:31.121Z,154.35
2023-06-07T00:11:31.136Z,152.17
2023-06-07T00:12:31.227Z,150.73
2023-06-07T00:13:31.159Z,150.60
2023-06-07T00:14:31.234Z,153.01
2023-06-07T00:15:31.294Z,152.63
2023-06-07T00:16:31.338Z,152.41
2023-06-07T00:17:31.452Z,153.07
2023-06-07T00:18:31.420Z,151.10
2023-06-07T00:19:31.391Z,151.98
2023-06-07T00:20:31.433Z,146.71
2023-06-07T00:21:31.528Z,150.45
2023-06-07T00:22:31.521Z,151.60
2023-06-07T00:23:31.607Z,152.17
2023-06-07T00:24:31.633Z,151.64
2023-06-07T00:25:31.630Z,152.93
2023-06-07T00:26:31.617Z,153.18
2023-06-07T00:27:31.668Z,151.77
2023-06-07T00:28:31.691Z,153.23
2023-06-07T00:29:31.735Z,155.00
2023-06-07T00:30:31.725Z,154.01
2023-06-07T00:31:31.810Z,152.01
2023-06-07T00:32:31.796Z,148.99
2023-06-07T00:33:31.834Z,147.42
2023-06-07T00:34:31.837Z,146.63
2023-06-07T00:35:31.875Z,148.11
2023-06-07T00:36:31.868Z,149.01
2023-06-07T00:37:31.928Z,147.80
2023-06-07T00:38:31.922Z,149.37
2023-06-07T00:39:31.919Z,151.95
2023-06-07T00:40:31.947Z,152.02
2023-06-07T00:41:31.961Z,150.77
2023-06-07T00:42:31.965Z,153.36
2023-06-07T00:43:32.050Z,154.20
2023-06-07T00:44:31.994Z,155.99
2023-06-07T00:45:32.032Z,154.55
2023-06-07T00:46:32.039Z,156.15
2023-06-07T00:47:32.186Z,156.15
2023-06-07T00:48:32.151Z,152.88
2023-06-07T00:49:32.130Z,151.34
2023-06-07T00:50:32.194Z,150.31
2023-06-07T00:51:32.195Z,150.19
2023-06-07T00:52:32.242Z,148.55
2023-06-07T00:53:32.266Z,148.98
2023-06-07T00:54:32.332Z,146.98
2023-06-07T00:55:32.319Z,147.41
2023-06-07T00:56:32.327Z,146.22
2023-06-07T00:57:32.349Z,147.71
2023-06-07T00:58:32.420Z,149.49
2023-06-07T00:59:32.384Z,149.41
2023-06-07T01:00:32.480Z,150.14
2023-06-07T01:01:32.495Z,153.04
2023-06-07T01:02:32.429Z,150.67
2023-06-07T01:03:32.631Z,149.80
2023-06-07T01:04:32.420Z,153.73
2023-06-07T01:05:32.453Z,153.21
2023-06-07T01:06:32.419Z,153.55
2023-06-07T01:07:32.460Z,152.09
2023-06-07T01:08:32.462Z,149.57
2023-06-07T01:09:32.459Z,149.62
2023-06-07T01:10:32.534Z,150.80
2023-06-07T01:11:32.554Z,153.22
2023-06-07T01:12:32.605Z,149.85
2023-06-07T01:13:32.625Z,152.19
2023-06-07T01:14:32.640Z,153.69
2023-06-07T01:15:32.673Z,156.24
2023-06-07T01:16:32.708Z,153.92
2023-06-07T01:17:32.726Z,148.83
2023-06-07T01:18:32.697Z,150.21
2023-06-07T01:19:32.732Z,148.08
2023-06-07T01:20:32.733Z,148.10
2023-06-07T01:21:32.786Z,144.87
2023-06-07T01:22:32.725Z,144.78
2023-06-07T01:23:32.853Z,145.05
2023-06-07T01:24:32.752Z,145.41
2023-06-07T01:25:32.749Z,141.85
2023-06-07T01:26:32.775Z,136.64
2023-06-07T01:27:32.759Z,138.00
2023-06-07T01:28:32.752Z,138.27
2023-06-07T01:29:32.785Z,138.29
2023-06-07T01:30:32.842Z,139.79
2023-06-07T01:31:32.815Z,140.69
2023-06-07T01:32:32.854Z,138.82
2023-06-07T01:33:32.818Z,140.86
2023-06-07T01:34:32.830Z,140.55
2023-06-07T01:35:32.839Z,141.91
2023-06-07T01:36:32.861Z,142.68
2023-06-07T01:37:32.862Z,139.26
2023-06-07T01:38:32.850Z,134.95
2023-06-07T01:39:32.864Z,142.00
2023-06-07T01:40:32.858Z,146.37
2023-06-07T01:41:32.897Z,145.90
2023-06-07T01:42:32.890Z,141.06
2023-06-07T01:43:32.881Z,148.18
2023-06-07T01:44:32.899Z,143.60
2023-06-07T01:45:32.918Z,144.76
2023-06-07T01:46:33.010Z,147.16
2023-06-07T01:47:32.946Z,149.98
2023-06-07T01:48:32.964Z,139.90
2023-06-07T01:49:32.930Z,139.27
2023-06-07T01:50:32.915Z,140.21
2023-06-07T01:51:32.944Z,140.95
2023-06-07T01:52:32.936Z,141.11
2023-06-07T01:53:32.920Z,136.16
2023-06-07T01:54:32.940Z,137.31
2023-06-07T01:55:32.972Z,140.14
2023-06-07T01:56:32.952Z,138.42
2023-06-07T01:57:32.989Z,133.40
2023-06-07T01:58:32.980Z,136.10
2023-06-07T01:59:33.014Z,137.02
2023-06-07T02:00:33.006Z,136.44
2023-06-07T02:01:33.127Z,135.14
2023-06-07T02:02:33.052Z,132.82
2023-06-07T02:03:33.023Z,122.14
2023-06-07T02:04:33.026Z,126.99
2023-06-07T02:05:33.056Z,115.45
2023-06-07T02:06:33.079Z,125.87
2023-06-07T02:07:33.065Z,136.10
2023-06-07T02:08:33.116Z,140.72
2023-06-07T02:09:33.089Z,141.89
2023-06-07T02:10:33.126Z,144.49
2023-06-07T02:11:33.174Z,139.58
2023-06-07T02:12:33.117Z,121.37
2023-06-07T02:13:33.122Z,125.56
2023-06-07T02:14:33.145Z,134.09
2023-06-07T02:15:33.138Z,134.22
2023-06-07T02:16:33.176Z,126.68
2023-06-07T02:17:33.435Z,127.55
2023-06-07T02:18:33.159Z,118.81
2023-06-07T02:19:33.200Z,126.25
2023-06-07T02:20:33.198Z,125.31
2023-06-07T02:21:33.219Z,121.62
2023-06-07T02:22:33.240Z,121.98
2023-06-07T02:23:33.284Z,107.22
2023-06-07T02:24:33.251Z,104.75
2023-06-07T02:25:33.272Z,111.01
2023-06-07T02:26:33.279Z,118.61
2023-06-07T02:27:33.274Z,116.97
2023-06-07T02:28:33.379Z,121.81
2023-06-07T02:29:33.339Z,126.10
2023-06-07T02:30:33.324Z,122.55
2023-06-07T02:31:33.387Z,115.46
2023-06-07T02:32:33.371Z,110.63
2023-06-07T02:33:33.360Z,106.79
2023-06-07T02:34:33.397Z,105.86
2023-06-07T02:35:33.404Z,111.09
2023-06-07T02:36:33.410Z,109.79
2023-06-07T02:37:33.429Z,113.53
2023-06-07T02:38:33.425Z,111.51
2023-06-07T02:39:33.463Z,101.04
2023-06-07T02:40:33.464Z,90.99
2023-06-07T02:41:33.495Z,90.21
2023-06-07T02:42:33.492Z,94.04
2023-06-07T02:43:33.512Z,97.83
2023-06-07T02:44:33.505Z,106.29
2023-06-07T02:45:33.548Z,112.18
2023-06-07T02:46:33.534Z,98.57
2023-06-07T02:47:33.586Z,99.53
2023-06-07T02:48:33.556Z,106.47
2023-06-07T02:49:33.565Z,109.74
2023-06-07T02:50:33.580Z,107.98
2023-06-07T02:51:33.590Z,103.81
2023-06-07T02:52:33.580Z,103.67
2023-06-07T02:53:33.647Z,104.71
2023-06-07T02:54:33.643Z,94.67
2023-06-07T02:55:33.691Z,91.60
2023-06-07T02:56:33.669Z,96.15
2023-06-07T02:57:33.680Z,97.08
2023-06-07T02:58:33.692Z,88.54
2023-06-07T02:59:33.709Z,89.29
2023-06-07T03:00:33.749Z,95.34
2023-06-07T03:01:33.935Z,90.73
2023-06-07T03:02:33.851Z,86.63
2023-06-07T03:03:33.880Z,83.61
2023-06-07T03:04:33.811Z,92.60
2023-06-07T03:05:33.814Z,98.40
2023-06-07T03:06:33.863Z,99.33
2023-06-07T03:07:33.834Z,93.57
2023-06-07T03:08:33.858Z,90.84
2023-06-07T03:09:33.897Z,99.04
2023-06-07T03:10:33.911Z,105.52
2023-06-07T03:11:33.923Z,105.89
2023-06-07T03:12:33.886Z,101.42
2023-06-07T03:13:33.891Z,94.51
2023-06-07T03:14:33.943Z,90.76
2023-06-07T03:15:33.981Z,95.08
2023-06-07T03:16:33.999Z,93.72
2023-06-07T03:17:33.998Z,99.00
2023-06-07T03:18:33.974Z,100.43
2023-06-07T03:19:34.017Z,94.63
2023-06-07T03:20:34.048Z,95.01
2023-06-07T03:21:34.058Z,94.71
2023-06-07T03:22:34.095Z,99.18
2023-06-07T03:23:34.100Z,101.68
2023-06-07T03:24:34.103Z,107.29
2023-06-07T03:25:34.774Z,103.19
2023-06-07T03:26:34.165Z,97.41
2023-06-07T03:27:34.168Z,90.64
2023-06-07T03:28:34.185Z,91.57
2023-06-07T03:29:34.244Z,93.75
2023-06-07T03:30:34.305Z,93.23
2023-06-07T03:31:34.291Z,91.98
2023-06-07T03:32:34.378Z,87.62
2023-06-07T03:33:34.313Z,85.12
2023-06-07T03:34:34.353Z,82.44
2023-06-07T03:35:34.390Z,88.97
2023-06-07T03:36:34.399Z,94.00
2023-06-07T03:37:34.413Z,95.67
2023-06-07T03:38:34.451Z,94.98
2023-06-07T03:39:34.504Z,94.12
2023-06-07T03:40:34.529Z,99.36
2023-06-07T03:41:34.554Z,95.92
2023-06-07T03:42:34.556Z,95.36
2023-06-07T03:43:34.571Z,94.64
2023-06-07T03:44:34.613Z,97.24
2023-06-07T03:45:34.596Z,92.52
2023-06-07T03:46:34.638Z,94.43
2023-06-07T03:47:34.669Z,95.19
2023-06-07T03:48:34.705Z,96.39
2023-06-07T03:49:34.701Z,97.34
2023-06-07T03:50:34.708Z,91.94
2023-06-07T03:51:34.746Z,93.16
2023-06-07T03:52:34.786Z,95.94
2023-06-07T03:53:34.788Z,91.77
2023-06-07T03:54:34.795Z,94.03
2023-06-07T03:55:34.821Z,91.43
2023-06-07T03:56:34.902Z,88.82
2023-06-07T03:57:34.848Z,89.56
2023-06-07T03:58:34.868Z,96.50
2023-06-07T03:59:34.912Z,95.56
2023-06-07T04:00:34.894Z,92.15
2023-06-07T04:01:34.907Z,91.80
2023-06-07T04:02:35.040Z,91.20
2023-06-07T04:03:35.056Z,94.49
2023-06-07T04:04:35.010Z,98.13
2023-06-07T04:05:34.971Z,101.48
2023-06-07T04:06:34.995Z,102.44
2023-06-07T04:07:35.004Z,102.47
2023-06-07T04:08:35.015Z,98.39
2023-06-07T04:09:35.025Z,101.01
2023-06-07T04:10:35.021Z,103.85
2023-06-07T04:11:35.040Z,105.00
2023-06-07T04:12:35.050Z,103.28
2023-06-07T04:13:35.083Z,108.68
2023-06-07T04:14:35.062Z,103.76
2023-06-07T04:15:35.105Z,109.45
2023-06-07T04:16:35.139Z,111.48
2023-06-07T04:17:35.160Z,109.89
2023-06-07T04:18:35.161Z,108.51
2023-06-07T04:19:35.139Z,112.76
2023-06-07T04:20:35.143Z,117.21
2023-06-07T04:21:35.181Z,120.69
2023-06-07T04:22:35.194Z,120.09
2023-06-07T04:23:35.233Z,121.34
2023-06-07T04:24:35.207Z,114.36
2023-06-07T04:25:35.230Z,111.27
2023-06-07T04:26:35.250Z,112.32
2023-06-07T04:27:35.288Z,105.96
2023-06-07T04:28:35.282Z,110.70
2023-06-07T04:29:35.307Z,113.81
2023-06-07T04:30:35.300Z,116.77
2023-06-07T04:31:35.526Z,116.06
2023-06-07T04:32:35.364Z,121.60
2023-06-07T04:33:35.335Z,118.57
2023-06-07T04:34:35.362Z,115.57
2023-06-07T04:35:35.367Z,117.57
2023-06-07T04:36:35.364Z,119.39
2023-06-07T04:37:35.419Z,126.43
2023-06-07T04:38:43.352Z,132.35
2023-06-07T04:39:36.465Z,132.45
2023-06-07T04:40:35.456Z,129.96
2023-06-07T04:41:35.492Z,132.26
2023-06-07T04:42:35.475Z,131.31
2023-06-07T04:43:35.534Z,131.02
2023-06-07T04:44:35.521Z,130.52
2023-06-07T04:45:35.503Z,131.35
2023-06-07T04:46:35.610Z,134.24
2023-06-07T04:47:35.565Z,137.54
2023-06-07T04:48:35.600Z,137.95
2023-06-07T04:49:35.559Z,140.02
2023-06-07T04:50:35.531Z,141.68
2023-06-07T04:51:35.599Z,135.87
2023-06-07T04:52:35.572Z,138.37
2023-06-07T04:53:35.599Z,141.74
2023-06-07T04:54:35.598Z,143.38
2023-06-07T04:55:35.655Z,145.94
2023-06-07T04:56:35.583Z,146.14
2023-06-07T04:57:35.597Z,145.49
2023-06-07T04:58:35.593Z,145.25
2023-06-07T04:59:35.736Z,145.69
2023-06-07T05:00:35.614Z,144.08
2023-06-07T05:01:35.678Z,144.32
2023-06-07T05:02:35.689Z,143.08
2023-06-07T05:03:35.635Z,142.12
2023-06-07T05:04:35.642Z,141.91
2023-06-07T05:05:35.694Z,141.05
2023-06-07T05:06:35.696Z,139.96
2023-06-07T05:07:35.663Z,139.33
2023-06-07T05:08:35.702Z,136.94
2023-06-07T05:09:35.774Z,136.20
2023-06-07T05:10:35.719Z,135.60
2023-06-07T05:11:35.736Z,135.99
2023-06-07T05:12:35.722Z,134.55
2023-06-07T05:13:35.756Z,134.16
2023-06-07T05:14:35.826Z,133.92
2023-06-07T05:15:35.840Z,135.61
2023-06-07T05:16:35.894Z,134.69
2023-06-07T05:17:36.074Z,136.52
2023-06-07T05:18:35.932Z,139.39
2023-06-07T05:19:35.962Z,140.09
2023-06-07T05:20:35.958Z,137.69
2023-06-07T05:21:35.997Z,139.85
2023-06-07T05:22:35.998Z,137.68
2023-06-07T05:23:35.992Z,141.45
2023-06-07T05:24:36.009Z,141.59
2023-06-07T05:25:36.013Z,143.76
2023-06-07T05:26:36.069Z,143.12
2023-06-07T05:27:36.074Z,143.64
2023-06-07T05:28:36.074Z,144.42
2023-06-07T05:29:36.109Z,145.61
2023-06-07T05:30:36.154Z,145.67
2023-06-07T05:31:36.154Z,146.37
2023-06-07T05:32:36.179Z,144.64
2023-06-07T05:33:36.151Z,148.51
2023-06-07T05:34:36.161Z,146.99
2023-06-07T05:35:36.157Z,145.93
2023-06-07T05:36:36.362Z,148.63
2023-06-07T05:37:36.218Z,149.18
2023-06-07T05:38:36.203Z,149.14
2023-06-07T05:39:36.233Z,149.04
2023-06-07T05:40:36.246Z,146.09
2023-06-07T05:41:36.254Z,147.78
2023-06-07T05:42:36.264Z,150.29
2023-06-07T05:43:36.246Z,153.81
2023-06-07T05:44:36.257Z,156.65
2023-06-07T05:45:36.340Z,156.63
2023-06-07T05:46:36.804Z,161.80
2023-06-07T05:47:36.447Z,162.67
2023-06-07T05:48:36.418Z,163.94
2023-06-07T05:49:39.297Z,167.15
2023-06-07T05:50:36.466Z,170.01
2023-06-07T05:51:36.492Z,172.61
2023-06-07T05:52:36.499Z,172.94
2023-06-07T05:53:36.511Z,174.02
2023-06-07T05:54:36.496Z,176.13
2023-06-07T05:55:36.455Z,177.15
2023-06-07T05:56:36.518Z,177.12
2023-06-07T05:57:36.475Z,178.24
2023-06-07T05:58:36.482Z,175.30
2023-06-07T05:59:36.492Z,175.94
2023-06-07T06:00:36.479Z,174.68
2023-06-07T06:01:36.502Z,172.97
2023-06-07T06:02:36.543Z,174.38
2023-06-07T06:03:36.496Z,174.55
2023-06-07T06:04:36.558Z,179.17
2023-06-07T06:05:36.527Z,179.40
2023-06-07T06:06:36.526Z,183.93
2023-06-07T06:07:36.568Z,183.42
2023-06-07T06:08:36.581Z,186.83
2023-06-07T06:09:36.587Z,189.74
2023-06-07T06:10:36.583Z,191.07
2023-06-07T06:11:36.614Z,192.89
2023-06-07T06:12:36.604Z,196.49
2023-06-07T06:13:36.630Z,196.13
2023-06-07T06:14:36.597Z,195.51
2023-06-07T06:15:36.597Z,196.23
2023-06-07T06:16:36.661Z,198.68
2023-06-07T06:17:36.667Z,200.00
2023-06-07T06:18:36.606Z,198.19
2023-06-07T06:19:36.596Z,199.23
2023-06-07T06:20:36.611Z,198.68
2023-06-07T06:21:36.693Z,200.00
2023-06-07T06:22:36.666Z,199.63
2023-06-07T06:23:36.667Z,199.70
2023-06-07T06:24:36.634Z,199.23
2023-06-07T06:25:36.659Z,200.00
2023-06-07T06:26:36.660Z,199.36
2023-06-07T06:27:36.682Z,199.06
2023-06-07T06:28:36.655Z,198.47
2023-06-07T06:29:36.683Z,198.63
2023-06-07T06:30:36.709Z,200.00
2023-06-07T06:31:36.749Z,200.00
2023-06-07T06:32:36.711Z,199.31
2023-06-07T06:33:36.846Z,199.36
2023-06-07T06:34:36.717Z,199.06
2023-06-07T06:35:36.733Z,199.17
2023-06-07T06:36:36.745Z,197.25
2023-06-07T06:37:36.691Z,196.71
2023-06-07T06:38:36.712Z,197.01
2023-06-07T06:39:36.721Z,198.14
2023-06-07T06:40:36.715Z,196.60
2023-06-07T06:41:36.890Z,196.76
2023-06-07T06:42:36.751Z,194.94
2023-06-07T06:43:36.806Z,197.51
2023-06-07T06:44:36.748Z,197.51
2023-06-07T06:45:36.748Z,200.00
2023-06-07T06:46:36.822Z,198.85
2023-06-07T06:47:36.803Z,199.12
2023-06-07T06:48:36.835Z,195.77
2023-06-07T06:49:36.760Z,193.39
2023-06-07T06:50:36.992Z,197.33
2023-06-07T06:51:36.780Z,199.14
2023-06-07T06:52:36.771Z,200.00
2023-06-07T06:53:36.790Z,199.58
2023-06-07T06:54:36.811Z,199.68
2023-06-07T06:55:36.804Z,196.48
2023-06-07T06:56:36.819Z,197.57
2023-06-07T06:57:36.803Z,195.88
2023-06-07T06:58:36.807Z,196.47
2023-06-07T06:59:36.858Z,197.23
2023-06-07T07:00:36.947Z,195.97
2023-06-07T07:01:36.851Z,193.95
2023-06-07T07:02:36.836Z,193.75
2023-06-07T07:03:36.846Z,195.69
2023-06-07T07:04:36.977Z,194.26
2023-06-07T07:05:37.060Z,193.02
2023-06-07T07:06:36.864Z,192.79
2023-06-07T07:07:36.834Z,193.23
2023-06-07T07:08:36.893Z,193.05
2023-06-07T07:09:36.875Z,192.00
2023-06-07T07:10:36.923Z,191.68
2023-06-07T07:11:36.907Z,192.73
2023-06-07T07:12:36.914Z,192.75
2023-06-07T07:13:36.928Z,193.16
2023-06-07T07:14:36.937Z,193.61
2023-06-07T07:15:36.930Z,193.54
2023-06-07T07:16:39.180Z,192.18
2023-06-07T07:17:36.959Z,192.49
2023-06-07T07:18:36.941Z,191.10
2023-06-07T07:19:37.070Z,189.18
2023-06-07T07:20:36.954Z,188.95
2023-06-07T07:21:37.007Z,189.26
2023-06-07T07:22:36.974Z,189.78
2023-06-07T07:23:37.017Z,189.10
2023-06-07T07:24:37.296Z,188.21
2023-06-07T07:25:37.065Z,188.47
2023-06-07T07:26:37.038Z,188.14
2023-06-07T07:27:37.117Z,187.09
2023-06-07T07:28:37.048Z,189.50
2023-06-07T07:29:37.041Z,186.99
2023-06-07T07:30:37.057Z,186.72
2023-06-07T07:31:37.085Z,187.30
2023-06-07T07:32:37.071Z,186.55
2023-06-07T07:33:37.100Z,183.94
2023-06-07T07:34:38.081Z,184.10
2023-06-07T07:35:37.090Z,186.18
2023-06-07T07:36:37.114Z,185.84
2023-06-07T07:37:37.124Z,185.24
2023-06-07T07:38:37.116Z,184.56
2023-06-07T07:39:37.104Z,199.19
2023-06-07T07:40:37.231Z,188.36
2023-06-07T07:41:37.150Z,184.46
2023-06-07T07:42:37.136Z,183.57
2023-06-07T07:43:38.396Z,186.27
2023-06-07T07:44:37.193Z,188.12
2023-06-07T07:45:37.146Z,184.11
2023-06-07T07:46:37.158Z,183.72
2023-06-07T07:47:37.858Z,183.21
2023-06-07T07:48:37.136Z,185.02
2023-06-07T07:49:37.142Z,183.94
2023-06-07T07:50:37.167Z,185.10
2023-06-07T07:51:37.158Z,184.69
2023-06-07T07:52:37.270Z,183.54
2023-06-07T07:53:37.137Z,180.65
2023-06-07T07:54:37.178Z,181.39
2023-06-07T07:55:37.186Z,182.53
2023-06-07T07:56:37.189Z,183.20
2023-06-07T07:57:37.254Z,188.26
2023-06-07T07:58:37.214Z,190.73
2023-06-07T07:59:37.169Z,191.59
2023-06-07T08:00:37.179Z,191.24
2023-06-07T08:01:37.224Z,191.29
2023-06-07T08:02:37.323Z,192.98
2023-06-07T08:03:37.535Z,189.24
2023-06-07T08:04:37.173Z,189.24
2023-06-07T08:05:37.221Z,191.60
2023-06-07T08:06:37.192Z,194.64
2023-06-07T08:07:37.265Z,195.92
2023-06-07T08:08:37.214Z,195.39
2023-06-07T08:09:37.219Z,194.53
2023-06-07T08:10:37.191Z,190.56
2023-06-07T08:11:37.220Z,192.97
2023-06-07T08:12:37.203Z,190.86
2023-06-07T08:13:37.221Z,189.15
2023-06-07T08:14:37.211Z,188.27
2023-06-07T08:15:37.209Z,188.30
2023-06-07T08:16:37.208Z,187.78
2023-06-07T08:17:37.208Z,186.51
2023-06-07T08:18:37.262Z,185.99
2023-06-07T08:19:37.243Z,183.92
2023-06-07T08:20:37.234Z,185.52
2023-06-07T08:21:37.232Z,183.44
2023-06-07T08:22:37.203Z,179.83
2023-06-07T08:23:37.236Z,181.13
2023-06-07T08:24:37.232Z,178.18
2023-06-07T08:25:37.234Z,179.06
2023-06-07T08:26:37.227Z,174.78
2023-06-07T08:27:37.298Z,175.92
2023-06-07T08:28:37.214Z,174.18
2023-06-07T08:29:37.236Z,173.41
2023-06-07T08:30:37.249Z,171.55
2023-06-07T08:31:37.288Z,171.47
2023-06-07T08:32:37.284Z,175.71
2023-06-07T08:33:37.250Z,170.89
2023-06-07T08:34:37.263Z,164.76
2023-06-07T08:35:37.242Z,171.15
2023-06-07T08:36:37.284Z,173.28
2023-06-07T08:37:37.281Z,167.68
2023-06-07T08:38:37.340Z,170.18
2023-06-07T08:39:37.390Z,170.19
2023-06-07T08:40:37.438Z,167.77
2023-06-07T08:41:37.816Z,171.25
2023-06-07T08:42:37.556Z,177.18
2023-06-07T08:43:37.580Z,187.64
2023-06-07T08:44:37.676Z,190.10
2023-06-07T08:45:40.496Z,196.94
2023-06-07T08:46:37.840Z,197.32
2023-06-07T08:47:37.825Z,198.32
2023-06-07T08:48:37.778Z,200.78
2023-06-07T08:49:37.760Z,207.78
2023-06-07T08:50:37.805Z,215.70
2023-06-07T08:51:37.781Z,213.22
2023-06-07T08:52:37.765Z,204.75
2023-06-07T08:53:37.827Z,197.21
2023-06-07T08:54:37.788Z,199.78
2023-06-07T08:55:37.796Z,196.63
2023-06-07T08:56:37.824Z,195.39
2023-06-07T08:57:38.065Z,198.69
2023-06-07T08:58:37.837Z,195.58
2023-06-07T08:59:37.799Z,193.45
2023-06-07T09:00:37.786Z,192.92
2023-06-07T09:01:37.916Z,190.88
2023-06-07T09:02:37.899Z,190.72
2023-06-07T09:03:38.049Z,190.49
2023-06-07T09:04:37.954Z,191.61
2023-06-07T09:05:38.022Z,189.26
2023-06-07T09:06:38.071Z,188.21
2023-06-07T09:07:38.169Z,189.45
2023-06-07T09:08:38.182Z,186.41
2023-06-07T09:09:38.242Z,184.70
2023-06-07T09:10:38.329Z,184.57
2023-06-07T09:11:38.404Z,183.04
2023-06-07T09:12:38.437Z,183.07
2023-06-07T09:13:38.476Z,181.12
2023-06-07T09:14:38.524Z,180.85
2023-06-07T09:15:38.642Z,184.00
2023-06-07T09:16:38.795Z,188.65
2023-06-07T09:17:38.802Z,188.94
2023-06-07T09:18:38.868Z,187.74
2023-06-07T09:19:38.853Z,184.93
2023-06-07T09:20:38.933Z,183.03
2023-06-07T09:21:39.022Z,180.77
2023-06-07T09:22:39.048Z,179.32
2023-06-07T09:23:39.174Z,176.22
2023-06-07T09:24:39.171Z,175.27
2023-06-07T09:25:39.274Z,174.90
2023-06-07T09:26:39.756Z,174.27
2023-06-07T09:27:39.389Z,171.91
2023-06-07T09:28:39.449Z,170.15
2023-06-07T09:29:39.548Z,173.22
2023-06-07T09:30:39.577Z,171.45
2023-06-07T09:31:39.715Z,170.61
2023-06-07T09:32:39.758Z,175.77
2023-06-07T09:33:39.807Z,168.75
2023-06-07T09:34:39.806Z,164.76
2023-06-07T09:35:39.902Z,164.77
2023-06-07T09:36:40.038Z,166.77
2023-06-07T09:37:40.071Z,172.75
2023-06-07T09:38:40.099Z,173.61
2023-06-07T09:39:40.155Z,176.98
2023-06-07T09:40:40.225Z,180.73
2023-06-07T09:41:40.292Z,190.03
2023-06-07T09:42:40.301Z,190.41
2023-06-07T09:43:40.379Z,194.63
2023-06-07T09:44:40.451Z,198.12
2023-06-07T09:45:40.676Z,193.71
2023-06-07T09:46:40.593Z,195.04
2023-06-07T09:47:40.768Z,194.86
2023-06-07T09:48:40.762Z,200.00
2023-06-07T09:49:40.705Z,197.86
2023-06-07T09:50:40.780Z,199.67
2023-06-07T09:51:40.817Z,187.32
2023-06-07T09:52:40.767Z,183.60
2023-06-07T09:53:40.848Z,185.88
2023-06-07T09:54:40.907Z,188.17
2023-06-07T09:55:40.926Z,186.60
2023-06-07T09:56:40.916Z,189.55
2023-06-07T09:57:40.959Z,191.47
2023-06-07T09:58:41.076Z,191.14
2023-06-07T09:59:41.055Z,187.76
2023-06-07T10:00:41.155Z,192.33
2023-06-07T10:01:41.483Z,190.38
2023-06-07T10:02:41.266Z,185.08
2023-06-07T10:03:41.957Z,187.39
2023-06-07T10:04:41.321Z,189.20
2023-06-07T10:05:41.351Z,190.29
2023-06-07T10:06:41.438Z,189.23
2023-06-07T10:07:41.539Z,189.67
2023-06-07T10:08:41.472Z,191.36
2023-06-07T10:09:41.544Z,196.99
2023-06-07T10:10:41.554Z,198.81
2023-06-07T10:11:41.608Z,200.00
2023-06-07T10:12:41.706Z,197.08
2023-06-07T10:13:41.794Z,199.21
2023-06-07T10:14:41.793Z,197.94
2023-06-07T10:15:41.811Z,200.00
2023-06-07T10:16:41.908Z,199.83
2023-06-07T10:17:41.920Z,199.27
2023-06-07T10:18:41.932Z,199.27
2023-06-07T10:19:42.090Z,199.03
2023-06-07T10:20:42.039Z,198.33
2023-06-07T10:21:42.084Z,197.92
2023-06-07T10:22:42.097Z,198.36
2023-06-07T10:23:42.241Z,200.11
2023-06-07T10:24:42.214Z,194.98
2023-06-07T10:25:42.235Z,193.07
2023-06-07T10:26:42.329Z,194.97
2023-06-07T10:27:42.398Z,195.98
2023-06-07T10:28:42.418Z,196.60
2023-06-07T10:29:42.500Z,197.94
2023-06-07T10:30:42.532Z,196.54
2023-06-07T10:31:42.603Z,196.33
2023-06-07T10:32:42.752Z,197.74
2023-06-07T10:33:42.829Z,200.00
2023-06-07T10:34:42.724Z,199.54
2023-06-07T10:35:42.826Z,199.09
2023-06-07T10:36:42.928Z,199.86
2023-06-07T10:37:42.949Z,198.97
2023-06-07T10:38:43.005Z,198.79
2023-06-07T10:39:43.056Z,196.78
2023-06-07T10:40:43.064Z,220.88
2023-06-07T10:41:43.116Z,216.20
2023-06-07T10:42:43.144Z,197.74
2023-06-07T10:43:43.154Z,195.15
2023-06-07T10:44:43.266Z,189.67
2023-06-07T10:45:43.396Z,185.81
2023-06-07T10:46:43.352Z,184.24
2023-06-07T10:47:43.414Z,185.41
2023-06-07T10:48:43.407Z,187.30
2023-06-07T10:49:43.610Z,187.70
2023-06-07T10:50:43.473Z,180.83
2023-06-07T10:51:43.569Z,179.34
2023-06-07T10:52:43.526Z,178.83
2023-06-07T10:53:43.583Z,176.97
2023-06-07T10:54:43.660Z,174.52
2023-06-07T10:55:43.712Z,171.49
2023-06-07T10:56:43.769Z,170.50
2023-06-07T10:57:43.818Z,169.16
2023-06-07T10:58:43.773Z,170.38
2023-06-07T10:59:43.805Z,170.43
2023-06-07T11:00:43.935Z,168.58
2023-06-07T11:01:43.933Z,168.20
2023-06-07T11:02:44.056Z,170.90
2023-06-07T11:03:44.141Z,169.61
2023-06-07T11:04:44.326Z,166.14
2023-06-07T11:05:44.204Z,161.52
2023-06-07T11:06:44.152Z,168.80
2023-06-07T11:07:44.233Z,171.50
2023-06-07T11:08:44.254Z,167.57
2023-06-07T11:09:44.271Z,169.26
2023-06-07T11:10:44.373Z,167.37
2023-06-07T11:11:44.381Z,165.47
2023-06-07T11:12:44.485Z,167.44
2023-06-07T11:13:44.551Z,163.95
2023-06-07T11:14:44.571Z,164.82
2023-06-07T11:15:44.594Z,166.48
2023-06-07T11:16:44.681Z,165.99
2023-06-07T11:17:44.708Z,163.05
2023-06-07T11:18:44.702Z,161.16
2023-06-07T11:19:44.762Z,164.14
2023-06-07T11:20:44.958Z,163.41
2023-06-07T11:21:44.974Z,162.35
2023-06-07T11:22:44.920Z,162.09
2023-06-07T11:23:45.062Z,165.36
2023-06-07T11:24:46.836Z,160.46
2023-06-07T11:25:45.157Z,156.30
2023-06-07T11:26:45.130Z,151.11
2023-06-07T11:27:45.154Z,142.01
2023-06-07T11:28:45.244Z,139.71
2023-06-07T11:29:45.358Z,135.10
2023-06-07T11:30:45.283Z,134.90
2023-06-07T11:31:45.322Z,142.72
2023-06-07T11:32:45.415Z,146.38
2023-06-07T11:33:45.400Z,150.23
2023-06-07T11:34:45.457Z,157.68
2023-06-07T11:35:45.439Z,156.47
2023-06-07T11:36:45.509Z,155.78
2023-06-07T11:37:45.488Z,157.08
2023-06-07T11:38:45.535Z,158.02
2023-06-07T11:39:45.576Z,150.41
2023-06-07T11:40:45.621Z,143.93
2023-06-07T11:41:48.180Z,134.04
2023-06-07T11:42:45.594Z,124.69
2023-06-07T11:43:45.598Z,105.82
2023-06-07T11:44:45.619Z,88.83
2023-06-07T11:45:45.633Z,70.45
2023-06-07T11:46:45.617Z,58.38
2023-06-07T11:47:45.693Z,49.38
2023-06-07T11:48:45.641Z,54.47
2023-06-07T11:49:45.608Z,58.44
2023-06-07T11:50:45.620Z,59.93
2023-06-07T11:51:45.626Z,68.34
2023-06-07T11:52:45.637Z,77.93
2023-06-07T11:53:45.617Z,87.48
2023-06-07T11:54:45.577Z,96.24
2023-06-07T11:55:45.564Z,102.57
2023-06-07T11:56:45.625Z,107.79
2023-06-07T11:57:45.611Z,112.79
2023-06-07T11:58:45.578Z,117.91
2023-06-07T11:59:45.573Z,116.76
2023-06-07T12:00:45.584Z,119.33
2023-06-07T12:01:45.558Z,125.86
2023-06-07T12:02:45.634Z,126.84
2023-06-07T12:03:45.751Z,127.40
2023-06-07T12:04:45.734Z,132.28
2023-06-07T12:05:45.571Z,131.43
2023-06-07T12:06:45.593Z,130.54
2023-06-07T12:07:45.563Z,128.87
2023-06-07T12:08:45.610Z,129.04
2023-06-07T12:09:45.568Z,130.34
2023-06-07T12:10:45.581Z,128.46
2023-06-07T12:11:45.602Z,127.96
2023-06-07T12:12:45.594Z,129.18
2023-06-07T12:13:45.601Z,131.81
2023-06-07T12:14:45.645Z,129.33
2023-06-07T12:15:45.624Z,128.81
2023-06-07T12:16:45.589Z,132.44
2023-06-07T12:17:45.625Z,133.69
2023-06-07T12:18:45.611Z,134.10
2023-06-07T12:19:45.598Z,134.68
2023-06-07T12:20:45.623Z,133.61
2023-06-07T12:21:45.626Z,129.06
2023-06-07T12:22:45.597Z,121.25
2023-06-07T12:23:45.696Z,121.90
2023-06-07T12:24:45.615Z,118.44
2023-06-07T12:25:45.630Z,119.74
2023-06-07T12:26:45.610Z,122.93
2023-06-07T12:27:45.621Z,120.15
2023-06-07T12:28:45.578Z,120.91
2023-06-07T12:29:45.606Z,124.70
2023-06-07T12:30:45.628Z,124.43
2023-06-07T12:31:45.763Z,127.74